This is the latest recevied weather packets stored in our database for station/object HB9CYX-13. If no packets are shown the sender has not sent any weather packets the latest 10 day(s).
| Time | Temp. | Humidity | Pressure | Rain* | Wind** | Luminosity | Snow |
|---|---|---|---|---|---|---|---|
| 1777894802 | 24.44° C | 34% | 1012.7 hPa | 0 mm | - | - | - |
| 1777894066 | 25.56° C | 31% | 1012.7 hPa | 0 mm | - | - | - |
| 1777893330 | 23.89° C | 33% | 1012.9 hPa | 0 mm | - | - | - |
| 1777892594 | 26.11° C | 32% | 1012.7 hPa | 0 mm | - | - | - |
| 1777891858 | 24.44° C | 36% | 1012.9 hPa | 0 mm | - | - | - |
| 1777891122 | 23.33° C | 36% | 1013.1 hPa | 0 mm | - | - | - |
| 1777890386 | 21.67° C | 43% | 1013.6 hPa | 0 mm | - | - | - |
| 1777889649 | 20° C | 44% | 1014.2 hPa | 0 mm | - | - | - |
| 1777888913 | 20° C | 49% | 1014.5 hPa | 0 mm | - | - | - |
| 1777886930 | 19.44° C | 49% | 1015.1 hPa | 0 mm | - | - | - |
| 1777886193 | 20° C | 45% | 1015 hPa | 0 mm | - | - | - |
| 1777885456 | 20.56° C | 45% | 1015 hPa | 0 mm | - | - | - |
| 1777884719 | 21.11° C | 45% | 1014.8 hPa | 0 mm | - | - | - |
| 1777883981 | 20° C | 48% | 1015.1 hPa | 0 mm | - | - | - |
| 1777883244 | 21.11° C | 46% | 1014.9 hPa | 0 mm | - | - | - |
| 1777882507 | 19.44° C | 51% | 1015.4 hPa | 0 mm | - | - | - |
| 1777881770 | 19.44° C | 51% | 1015.5 hPa | 0 mm | - | - | - |
| 1777881033 | 18.89° C | 52% | 1015.6 hPa | 0 mm | - | - | - |
| 1777880295 | 19.44° C | 50% | 1015.5 hPa | 0 mm | - | - | - |
| 1777879558 | 18.89° C | 52% | 1015.7 hPa | 0 mm | - | - | - |
| 1777878821 | 16.11° C | 60% | 1016.1 hPa | 0 mm | - | - | - |
| 1777878084 | 14.44° C | 69% | 1016.5 hPa | 0 mm | - | - | - |
| 1777877347 | 13.33° C | 72% | 1016.8 hPa | 0 mm | - | - | - |
| 1777876609 | 12.78° C | 75% | 1017 hPa | 0 mm | - | - | - |
| 1777875872 | 12.22° C | 77% | 1017 hPa | 0 mm | - | - | - |
* Rain latest hour (hover to see other rain measurements)
** Current wind speed in m/s (hover to see current wind gust speed)